Time;durP1;ratioP1;P1;durP2;ratioP2;P2;SDS_P1;SDS_P2;PMS_P1;PMS_P2;Temp;Humidity;BMP_temperature;BMP_pressure;BME280_temperature;BME280_humidity;BME280_pressure;Samples;Min_cycle;Max_cycle;Signal;HPM_P1;HPM_P2
2023/01/18 00:01:41;;;;;;;44.53;20.77;;;;;;;1.82;100.00;147905.59;5026348;28;20022;-70
2023/01/18 00:04:06;;;;;;;50.47;21.63;;;;;;;1.82;100.00;147905.59;5019479;28;20560;-71
2023/01/18 00:06:32;;;;;;;56.93;22.03;;;;;;;1.82;100.00;147905.59;5031957;28;20041;-70
2023/01/18 00:08:57;;;;;;;51.50;21.37;;;;;;;1.82;100.00;147905.59;5022301;28;20116;-70
2023/01/18 00:11:22;;;;;;;52.83;22.50;;;;;;;1.82;100.00;147905.59;5023871;28;20106;-70
2023/01/18 00:13:48;;;;;;;59.77;24.37;;;;;;;1.82;100.00;147905.59;5019308;28;20029;-71
2023/01/18 00:16:17;;;;;;;56.60;23.17;;;;;;;1.82;100.00;147905.59;5027861;28;20548;-69
2023/01/18 00:18:43;;;;;;;61.47;23.03;;;;;;;1.82;100.00;147905.59;5018610;28;20064;-69
2023/01/18 00:21:10;;;;;;;64.30;24.73;;;;;;;1.82;100.00;147905.59;5019222;28;20339;-69
2023/01/18 00:23:36;;;;;;;68.10;25.83;;;;;;;1.82;100.00;147905.59;5031933;28;20273;-69
2023/01/18 00:26:04;;;;;;;73.67;28.03;;;;;;;1.82;100.00;147905.59;5016930;28;20272;-69
2023/01/18 00:28:29;;;;;;;68.27;25.93;;;;;;;1.82;100.00;147905.59;5013182;28;20029;-69
2023/01/18 00:30:55;;;;;;;70.67;27.00;;;;;;;1.82;100.00;147905.59;5023435;28;20342;-68
2023/01/18 00:33:21;;;;;;;77.27;27.47;;;;;;;1.82;100.00;147905.59;5018321;28;20032;-69
2023/01/18 00:35:56;;;;;;;71.90;27.80;;;;;;;1.82;100.00;147905.59;5026086;28;20464;-69
2023/01/18 00:38:22;;;;;;;86.80;29.87;;;;;;;1.82;100.00;147905.59;5023491;28;20029;-69
2023/01/18 00:40:47;;;;;;;75.73;26.63;;;;;;;1.82;100.00;147905.59;5027769;28;20648;-69
2023/01/18 00:45:56;;;;;;;80.27;29.67;;;;;;;1.82;100.00;147905.59;5021211;28;20085;-69
2023/01/18 00:48:21;;;;;;;84.83;30.83;;;;;;;1.82;100.00;147905.59;5018192;28;20309;-69
2023/01/18 00:50:47;;;;;;;79.10;30.73;;;;;;;1.82;100.00;147905.59;5022263;28;20032;-69
2023/01/18 00:53:12;;;;;;;80.37;29.87;;;;;;;1.82;100.00;147905.59;5016664;28;20026;-68
2023/01/18 00:55:37;;;;;;;85.30;30.47;;;;;;;1.82;100.00;147905.59;5017424;28;20493;-69
2023/01/18 00:58:03;;;;;;;83.50;31.07;;;;;;;1.82;100.00;147905.59;5018749;28;20021;-69
2023/01/18 01:00:28;;;;;;;81.37;30.87;;;;;;;1.82;100.00;147905.59;5030143;28;20025;-69
2023/01/18 01:02:54;;;;;;;78.80;28.73;;;;;;;1.82;100.00;147905.59;5026682;28;20113;-69
2023/01/18 01:08:06;;;;;;;82.70;31.20;;;;;;;1.82;100.00;147905.59;5021284;28;20124;-69
2023/01/18 01:10:35;;;;;;;87.13;30.67;;;;;;;1.82;100.00;147905.59;5017634;28;20272;-69
2023/01/18 01:26:41;;;;;;;82.33;30.97;;;;;;;1.82;100.00;147905.59;5018334;28;20652;-69
2023/01/18 01:29:07;;;;;;;86.03;31.03;;;;;;;1.82;100.00;147905.59;5026722;28;20593;-69
2023/01/18 01:31:32;;;;;;;86.63;30.20;;;;;;;1.82;100.00;147905.59;5015116;28;20288;-69
2023/01/18 01:33:58;;;;;;;89.60;31.20;;;;;;;1.82;100.00;147905.59;5025920;28;20022;-69
2023/01/18 01:36:27;;;;;;;87.23;31.03;;;;;;;1.82;100.00;147905.59;5022202;28;20087;-69
2023/01/18 01:38:54;;;;;;;90.77;31.50;;;;;;;1.82;100.00;147905.59;5011058;28;20048;-69
2023/01/18 01:41:31;;;;;;;89.40;30.50;;;;;;;1.82;100.00;147905.59;5025137;28;20591;-69
2023/01/18 01:44:19;;;;;;;97.27;31.60;;;;;;;1.82;100.00;147905.59;5012989;28;20260;-69
2023/01/18 01:47:09;;;;;;;98.77;32.07;;;;;;;1.82;100.00;147905.59;5013533;28;20292;-69
2023/01/18 01:49:38;;;;;;;108.37;33.53;;;;;;;1.82;100.00;147905.59;5013023;28;20280;-69
2023/01/18 01:52:10;;;;;;;111.43;35.07;;;;;;;1.82;100.00;147905.59;5014808;28;20617;-69
2023/01/18 01:54:47;;;;;;;111.88;35.17;;;;;;;1.82;100.00;147905.59;5029519;28;20363;-69
2023/01/18 01:57:25;;;;;;;117.67;36.27;;;;;;;1.82;100.00;147905.59;5024110;28;20106;-69
2023/01/18 02:00:05;;;;;;;112.13;32.87;;;;;;;1.82;100.00;147905.59;5021442;28;20281;-69
2023/01/18 02:02:32;;;;;;;110.07;34.30;;;;;;;1.82;100.00;147905.59;5019119;28;20307;-70
2023/01/18 02:05:01;;;;;;;109.37;34.67;;;;;;;1.82;100.00;147905.59;5022485;28;20779;-70
2023/01/18 02:07:27;;;;;;;117.57;36.13;;;;;;;1.82;100.00;147905.59;5017915;28;20276;-70
2023/01/18 02:09:54;;;;;;;119.03;37.43;;;;;;;1.82;100.00;147905.59;5015795;28;20810;-70
2023/01/18 02:12:19;;;;;;;122.83;38.53;;;;;;;1.82;100.00;147905.59;5023651;28;20278;-70
2023/01/18 02:14:46;;;;;;;115.17;37.27;;;;;;;1.82;100.00;147905.59;5024854;28;20279;-70
2023/01/18 02:17:19;;;;;;;116.83;37.03;;;;;;;1.82;100.00;147905.59;5017470;28;20036;-70
2023/01/18 02:20:18;;;;;;;124.57;38.20;;;;;;;1.82;100.00;147905.59;5020342;28;20268;-70
2023/01/18 02:22:46;;;;;;;114.17;37.37;;;;;;;1.82;100.00;147905.59;5021301;28;20264;-69
2023/01/18 02:25:49;;;;;;;115.43;37.20;;;;;;;1.82;100.00;147905.59;5013849;28;20281;-70
2023/01/18 02:28:27;;;;;;;116.57;37.07;;;;;;;1.82;100.00;147905.59;5013198;28;20857;-70
2023/01/18 02:31:14;;;;;;;121.50;37.50;;;;;;;1.82;100.00;147905.59;5021036;28;20284;-70
2023/01/18 02:33:51;;;;;;;126.73;37.53;;;;;;;1.82;100.00;147905.59;5022650;28;20818;-70
2023/01/18 02:36:49;;;;;;;127.07;38.70;;;;;;;1.82;100.00;147905.59;5019668;28;20273;-70
2023/01/18 02:39:40;;;;;;;139.77;40.10;;;;;;;1.82;100.00;147905.59;4983052;28;20720;-70
2023/01/18 02:48:33;;;;;;;138.73;40.53;;;;;;;1.82;100.00;147905.59;5013421;28;20842;-70
2023/01/18 02:50:59;;;;;;;135.87;42.13;;;;;;;1.82;100.00;147905.59;5019023;28;20272;-70
2023/01/18 02:53:24;;;;;;;135.37;41.27;;;;;;;1.82;100.00;147905.59;5020414;28;20311;-70
2023/01/18 02:56:00;;;;;;;135.33;41.37;;;;;;;1.82;100.00;147905.59;5016716;28;20080;-70
2023/01/18 02:58:43;;;;;;;146.17;42.30;;;;;;;1.82;100.00;147905.59;5021691;28;20036;-70
2023/01/18 03:01:14;;;;;;;148.73;43.13;;;;;;;1.82;100.00;147905.59;5019127;28;20543;-70
2023/01/18 03:03:43;;;;;;;142.18;42.92;;;;;;;1.82;100.00;147905.59;5021504;28;20268;-70
2023/01/18 03:06:08;;;;;;;150.47;44.00;;;;;;;1.82;100.00;147905.59;5026564;28;20085;-70
2023/01/18 03:08:40;;;;;;;143.40;43.30;;;;;;;1.82;100.00;147905.59;5022339;28;20622;-70
2023/01/18 03:11:17;;;;;;;156.30;45.10;;;;;;;1.82;100.00;147905.59;5021381;28;20476;-70
2023/01/18 03:14:15;;;;;;;163.77;45.67;;;;;;;1.82;100.00;147905.59;5024131;28;20787;-70
2023/01/18 03:17:13;;;;;;;151.27;45.27;;;;;;;1.82;100.00;147905.59;5018939;28;20347;-69
2023/01/18 03:20:05;;;;;;;148.77;45.07;;;;;;;1.82;100.00;147905.59;5019934;28;20656;-70
2023/01/18 03:25:45;;;;;;;138.13;43.47;;;;;;;1.82;100.00;147905.59;5024712;28;20083;-70
2023/01/18 03:34:01;;;;;;;157.17;43.83;;;;;;;1.82;100.00;147905.59;5026309;28;20303;-70
2023/01/18 03:36:31;;;;;;;155.47;43.67;;;;;;;1.82;100.00;147905.59;5024885;28;20281;-70
2023/01/18 03:39:02;;;;;;;144.53;43.17;;;;;;;1.82;100.00;147905.59;5025690;28;20630;-70
2023/01/18 03:41:32;;;;;;;152.87;43.53;;;;;;;1.82;100.00;147905.59;5016396;28;20283;-70
2023/01/18 03:44:06;;;;;;;149.80;46.77;;;;;;;1.82;100.00;147905.59;5022275;28;20309;-70
2023/01/18 03:46:32;;;;;;;155.20;46.07;;;;;;;1.82;100.00;147905.59;5024596;28;20280;-70
2023/01/18 03:48:59;;;;;;;136.00;43.17;;;;;;;1.82;100.00;147905.59;5024389;28;20280;-70
2023/01/18 03:51:46;;;;;;;139.70;45.40;;;;;;;1.82;100.00;147905.59;5031051;28;20712;-70
2023/01/18 03:54:28;;;;;;;139.17;44.03;;;;;;;1.82;100.00;147905.59;5022122;28;20287;-70
2023/01/18 03:57:07;;;;;;;140.40;44.10;;;;;;;1.82;100.00;147905.59;5019010;28;21088;-70
2023/01/18 03:59:36;;;;;;;154.17;46.23;;;;;;;1.82;100.00;147905.59;5019454;28;20341;-71
2023/01/18 04:02:04;;;;;;;149.87;46.83;;;;;;;1.82;100.00;147905.59;5018349;28;20295;-71
2023/01/18 04:04:29;;;;;;;153.97;46.47;;;;;;;1.82;100.00;147905.59;5024502;28;20284;-70
2023/01/18 04:06:56;;;;;;;158.10;46.03;;;;;;;1.82;100.00;147905.59;5028791;28;20339;-70
2023/01/18 04:09:22;;;;;;;161.27;45.07;;;;;;;1.82;100.00;147905.59;5028925;28;20048;-70
2023/01/18 04:11:47;;;;;;;156.07;44.93;;;;;;;1.82;100.00;147905.59;5028257;28;20642;-70
2023/01/18 04:14:13;;;;;;;141.97;44.27;;;;;;;1.82;100.00;147905.59;5022968;28;20034;-71
2023/01/18 04:16:38;;;;;;;143.77;46.37;;;;;;;1.82;100.00;147905.59;5023056;28;20033;-70
2023/01/18 04:19:04;;;;;;;148.60;45.70;;;;;;;1.82;100.00;147905.59;5025964;28;20025;-70
2023/01/18 04:21:30;;;;;;;143.87;45.73;;;;;;;1.82;100.00;147905.59;5027121;28;20038;-70
2023/01/18 04:23:55;;;;;;;133.80;43.33;;;;;;;1.82;100.00;147905.59;5018300;28;20334;-70
2023/01/18 04:26:21;;;;;;;149.97;45.00;;;;;;;1.82;100.00;147905.59;5017355;28;20033;-70
2023/01/18 04:28:46;;;;;;;142.93;45.23;;;;;;;1.82;100.00;147905.59;5019535;28;20064;-72
2023/01/18 04:31:11;;;;;;;142.57;46.80;;;;;;;1.82;100.00;147905.59;5023339;28;20771;-72
2023/01/18 04:33:37;;;;;;;142.50;45.43;;;;;;;1.82;100.00;147905.59;5024941;28;20025;-72
2023/01/18 04:36:02;;;;;;;137.17;43.07;;;;;;;1.82;100.00;147905.59;5018121;28;20110;-70
2023/01/18 04:38:28;;;;;;;142.17;44.77;;;;;;;1.82;100.00;147905.59;5020583;28;20029;-70
2023/01/18 04:40:53;;;;;;;136.57;44.40;;;;;;;1.82;100.00;147905.59;5016837;28;20034;-70
2023/01/18 04:43:18;;;;;;;153.70;45.47;;;;;;;1.82;100.00;147905.59;5020942;28;20141;-70
2023/01/18 04:45:52;;;;;;;156.23;45.77;;;;;;;1.82;100.00;147905.59;5020479;28;20037;-70
2023/01/18 04:48:18;;;;;;;150.97;46.27;;;;;;;1.82;100.00;147905.59;5028724;28;20053;-72
2023/01/18 04:50:45;;;;;;;142.90;46.03;;;;;;;1.82;100.00;147905.59;5024887;28;20378;-72
2023/01/18 04:53:10;;;;;;;151.10;47.00;;;;;;;1.82;100.00;147905.59;5022293;28;20084;-72
2023/01/18 04:55:36;;;;;;;160.03;47.63;;;;;;;1.82;100.00;147905.59;5018075;28;20324;-72
2023/01/18 04:58:01;;;;;;;164.63;49.87;;;;;;;1.82;100.00;147905.59;5016532;28;20026;-72
2023/01/18 05:00:26;;;;;;;159.40;46.83;;;;;;;1.82;100.00;147905.59;5018489;28;20115;-72
2023/01/18 05:02:52;;;;;;;144.20;43.13;;;;;;;1.82;100.00;147905.59;5022087;28;20029;-72
2023/01/18 05:05:18;;;;;;;138.00;44.73;;;;;;;1.82;100.00;147905.59;5022042;28;20029;-72
2023/01/18 05:07:43;;;;;;;145.60;44.73;;;;;;;1.82;100.00;147905.59;5029990;28;20032;-72
2023/01/18 05:10:09;;;;;;;144.63;44.30;;;;;;;1.82;100.00;147905.59;5023782;28;20228;-73
2023/01/18 05:12:34;;;;;;;147.47;45.07;;;;;;;1.82;100.00;147905.59;5022788;28;20360;-72
2023/01/18 05:15:00;;;;;;;154.90;46.53;;;;;;;1.82;100.00;147905.59;5022382;28;20038;-73
2023/01/18 05:17:26;;;;;;;150.53;46.60;;;;;;;1.82;100.00;147905.59;5018530;28;20470;-72
2023/01/18 05:19:53;;;;;;;128.27;38.03;;;;;;;1.82;100.00;147905.59;5026301;28;20029;-70
2023/01/18 05:22:19;;;;;;;155.23;46.87;;;;;;;1.82;100.00;147905.59;5030386;28;20667;-70
2023/01/18 05:24:45;;;;;;;152.30;44.23;;;;;;;1.82;100.00;147905.59;5027318;28;20281;-70
2023/01/18 05:27:12;;;;;;;158.87;48.53;;;;;;;1.82;100.00;147905.59;5022697;28;20631;-70
2023/01/18 05:29:37;;;;;;;142.63;47.37;;;;;;;1.82;100.00;147905.59;5022744;28;20088;-70
2023/01/18 05:32:05;;;;;;;141.77;45.87;;;;;;;1.82;100.00;147905.59;5026977;28;20283;-70
2023/01/18 05:34:30;;;;;;;135.93;44.07;;;;;;;1.82;100.00;147905.59;5022138;28;20112;-70
2023/01/18 05:36:55;;;;;;;141.87;46.53;;;;;;;1.82;100.00;147905.59;5022367;28;20700;-70
2023/01/18 05:39:21;;;;;;;139.93;46.07;;;;;;;1.82;100.00;147905.59;5021855;28;20034;-70
2023/01/18 05:41:46;;;;;;;144.90;43.23;;;;;;;1.82;100.00;147905.59;5019954;28;20490;-70
2023/01/18 05:44:11;;;;;;;137.87;44.03;;;;;;;1.82;100.00;147905.59;5017727;28;20453;-70
2023/01/18 05:46:37;;;;;;;141.60;45.07;;;;;;;1.82;100.00;147905.59;5025195;28;20032;-69
2023/01/18 05:49:02;;;;;;;147.43;45.20;;;;;;;1.82;100.00;147905.59;5019740;28;20394;-70
2023/01/18 05:51:27;;;;;;;144.03;44.77;;;;;;;1.82;100.00;147905.59;5019936;28;20393;-70
2023/01/18 05:53:53;;;;;;;152.40;45.00;;;;;;;1.82;100.00;147905.59;5025553;28;20087;-72
2023/01/18 05:56:18;;;;;;;156.10;45.20;;;;;;;1.82;100.00;147905.59;5015094;28;20033;-72
2023/01/18 05:58:44;;;;;;;150.00;46.93;;;;;;;1.82;100.00;147905.59;5023438;28;20029;-72
2023/01/18 06:01:09;;;;;;;148.57;44.27;;;;;;;1.82;100.00;147905.59;5018943;28;20129;-72
2023/01/18 06:03:35;;;;;;;139.87;45.57;;;;;;;1.82;100.00;147905.59;5017293;28;20034;-73
2023/01/18 06:06:01;;;;;;;150.20;45.90;;;;;;;1.82;100.00;147905.59;5017588;28;20913;-72
2023/01/18 06:08:26;;;;;;;145.37;44.40;;;;;;;1.82;100.00;147905.59;5020988;28;20280;-72
2023/01/18 06:10:57;;;;;;;150.67;45.77;;;;;;;1.82;100.00;147905.59;5024598;28;20040;-72
2023/01/18 06:13:23;;;;;;;153.53;46.13;;;;;;;1.82;100.00;147905.59;5023370;28;20037;-72
2023/01/18 06:15:50;;;;;;;162.80;46.87;;;;;;;1.82;100.00;147905.59;5022131;28;20025;-72
2023/01/18 06:18:16;;;;;;;167.67;45.83;;;;;;;1.82;100.00;147905.59;5021637;28;20287;-72
2023/01/18 06:20:41;;;;;;;163.87;48.30;;;;;;;1.82;100.00;147905.59;5018767;28;20748;-72
2023/01/18 06:23:07;;;;;;;167.03;47.27;;;;;;;1.82;100.00;147905.59;5012334;28;20057;-71
2023/01/18 06:25:32;;;;;;;159.23;47.10;;;;;;;1.82;100.00;147905.59;5015387;28;20026;-70
2023/01/18 06:27:58;;;;;;;177.27;49.20;;;;;;;1.82;100.00;147905.59;5023960;28;20521;-70
2023/01/18 06:30:24;;;;;;;169.17;48.20;;;;;;;1.82;100.00;147905.59;5015174;28;20481;-70
2023/01/18 06:32:49;;;;;;;172.40;47.93;;;;;;;1.82;100.00;147905.59;5024057;28;20183;-70
2023/01/18 06:35:15;;;;;;;160.60;47.43;;;;;;;1.82;100.00;147905.59;5014172;28;20121;-70
2023/01/18 06:37:40;;;;;;;158.53;46.80;;;;;;;1.82;100.00;147905.59;5026132;28;20049;-71
2023/01/18 06:40:08;;;;;;;170.77;47.43;;;;;;;1.82;100.00;147905.59;5011363;28;20026;-71
2023/01/18 06:42:33;;;;;;;172.83;47.63;;;;;;;1.82;100.00;147905.59;5023924;28;20090;-71
2023/01/18 06:44:58;;;;;;;165.27;46.37;;;;;;;1.82;100.00;147905.59;5022882;28;20275;-70
2023/01/18 06:47:24;;;;;;;184.27;48.40;;;;;;;1.82;100.00;147905.59;5023237;28;20034;-71
2023/01/18 06:49:49;;;;;;;189.27;49.83;;;;;;;1.82;100.00;147905.59;5021934;28;20148;-70
2023/01/18 06:52:15;;;;;;;187.80;49.43;;;;;;;1.82;100.00;147905.59;5021805;28;20068;-70
2023/01/18 06:54:40;;;;;;;179.43;49.13;;;;;;;1.82;100.00;147905.59;5011174;28;20030;-69
2023/01/18 06:57:06;;;;;;;179.60;48.87;;;;;;;1.82;100.00;147905.59;5015588;28;20031;-69
2023/01/18 06:59:32;;;;;;;196.93;50.40;;;;;;;1.82;100.00;147905.59;5017014;28;20037;-69
2023/01/18 07:01:57;;;;;;;192.77;49.03;;;;;;;1.82;100.00;147905.59;5026341;28;20034;-69
2023/01/18 07:04:22;;;;;;;200.20;50.50;;;;;;;1.82;100.00;147905.59;5023433;28;20044;-70
2023/01/18 07:06:48;;;;;;;210.63;51.40;;;;;;;1.82;100.00;147905.59;5021025;28;20053;-69
2023/01/18 07:09:13;;;;;;;200.93;52.17;;;;;;;1.82;100.00;147905.59;5020851;28;20089;-69
2023/01/18 07:11:42;;;;;;;198.47;52.47;;;;;;;1.82;100.00;147905.59;5019365;28;20045;-69
2023/01/18 07:14:11;;;;;;;210.23;51.90;;;;;;;1.82;100.00;147905.59;5015700;28;20056;-69
2023/01/18 07:16:37;;;;;;;214.80;54.40;;;;;;;1.82;100.00;147905.59;5016590;28;20281;-69
2023/01/18 07:19:03;;;;;;;230.63;56.43;;;;;;;1.82;100.00;147905.59;5017212;28;20272;-69
2023/01/18 07:21:29;;;;;;;211.17;53.17;;;;;;;1.82;100.00;147905.59;5019939;28;20291;-69
2023/01/18 07:23:56;;;;;;;217.17;54.47;;;;;;;1.82;100.00;147905.59;5014809;28;20644;-69
2023/01/18 07:26:22;;;;;;;229.70;54.80;;;;;;;1.82;100.00;147905.59;5023350;28;20312;-70
2023/01/18 07:28:48;;;;;;;214.67;53.37;;;;;;;1.82;100.00;147905.59;5013090;28;20363;-70
2023/01/18 07:31:15;;;;;;;222.93;55.07;;;;;;;1.82;100.00;147905.59;5013156;28;20026;-69
2023/01/18 07:33:41;;;;;;;217.77;52.60;;;;;;;1.82;100.00;147905.59;5010683;28;20371;-70
2023/01/18 07:36:09;;;;;;;221.30;53.90;;;;;;;1.82;100.00;147905.59;5015950;28;20319;-69
2023/01/18 07:38:35;;;;;;;226.13;55.53;;;;;;;1.82;100.00;147905.59;5027445;28;20435;-70
2023/01/18 07:41:07;;;;;;;222.97;55.33;;;;;;;1.82;100.00;147905.59;5023960;28;20280;-69
2023/01/18 07:43:33;;;;;;;225.57;54.78;;;;;;;1.82;100.00;147905.59;5030092;28;20291;-69
2023/01/18 07:46:00;;;;;;;215.43;55.07;;;;;;;1.82;100.00;147905.59;5021816;28;20095;-69
2023/01/18 07:48:26;;;;;;;212.97;54.03;;;;;;;1.82;100.00;147905.59;5021471;28;20276;-70
2023/01/18 07:51:00;;;;;;;231.20;56.33;;;;;;;1.82;100.00;147905.59;5019542;28;20576;-69
2023/01/18 07:53:27;;;;;;;222.17;55.90;;;;;;;1.82;100.00;147905.59;5021437;28;20707;-69
2023/01/18 07:55:53;;;;;;;205.10;55.23;;;;;;;1.82;100.00;147905.59;5027204;28;20291;-70
2023/01/18 07:58:20;;;;;;;218.40;54.67;;;;;;;1.82;100.00;147905.59;5016338;28;20776;-70
2023/01/18 08:00:46;;;;;;;184.10;46.77;;;;;;;1.82;100.00;147905.59;5025696;28;20327;-69
2023/01/18 08:03:16;;;;;;;182.93;48.30;;;;;;;1.82;100.00;147905.59;5014525;28;20319;-69
2023/01/18 08:05:43;;;;;;;185.23;50.53;;;;;;;1.82;100.00;147905.59;5020973;28;20682;-69
2023/01/18 08:08:13;;;;;;;178.23;52.77;;;;;;;1.82;100.00;147905.59;5013830;28;20498;-69
2023/01/18 08:10:39;;;;;;;188.60;52.00;;;;;;;1.82;100.00;147905.59;5017108;28;20719;-69
2023/01/18 08:13:08;;;;;;;181.37;50.87;;;;;;;1.82;100.00;147905.59;5023387;28;20728;-70
2023/01/18 08:15:33;;;;;;;183.93;52.10;;;;;;;1.82;100.00;147905.59;5014482;28;20765;-70
2023/01/18 08:18:03;;;;;;;188.67;53.10;;;;;;;1.82;100.00;147905.59;5013502;28;20307;-70
2023/01/18 08:20:28;;;;;;;175.13;51.40;;;;;;;1.82;100.00;147905.59;5017520;28;20030;-70
2023/01/18 08:22:55;;;;;;;177.80;50.20;;;;;;;1.82;100.00;147905.59;5013297;28;20272;-70
2023/01/18 08:25:22;;;;;;;169.80;50.57;;;;;;;1.82;100.00;147905.59;5016565;28;20022;-70
2023/01/18 08:27:48;;;;;;;174.20;49.13;;;;;;;1.82;100.00;147905.59;5017644;28;20280;-70
2023/01/18 08:30:13;;;;;;;168.83;49.80;;;;;;;1.82;100.00;147905.59;5017817;28;20283;-71
2023/01/18 08:32:39;;;;;;;173.27;51.63;;;;;;;1.82;100.00;147905.59;5015774;28;20113;-70
2023/01/18 08:35:05;;;;;;;169.67;49.60;;;;;;;1.82;100.00;147905.59;5014838;28;20482;-69
2023/01/18 08:37:31;;;;;;;162.27;49.43;;;;;;;1.82;100.00;147905.59;5013237;28;20030;-70
2023/01/18 08:39:57;;;;;;;156.37;47.63;;;;;;;1.82;100.00;147905.59;5012931;28;20340;-70
2023/01/18 08:42:22;;;;;;;148.77;47.80;;;;;;;1.82;100.00;147905.59;5013275;28;20022;-70
2023/01/18 08:44:47;;;;;;;135.93;44.73;;;;;;;1.82;100.00;147905.59;5017116;28;20053;-70
2023/01/18 08:47:14;;;;;;;133.40;44.20;;;;;;;1.82;100.00;147905.59;5015931;28;20050;-70
2023/01/18 08:49:40;;;;;;;129.37;43.53;;;;;;;1.82;100.00;147905.59;5017106;28;20063;-70
2023/01/18 08:52:05;;;;;;;116.57;41.77;;;;;;;1.82;100.00;147905.59;5013168;28;20265;-70
2023/01/18 08:54:31;;;;;;;110.83;41.13;;;;;;;1.82;100.00;147905.59;5015366;28;20034;-70
2023/01/18 08:56:56;;;;;;;104.13;39.60;;;;;;;1.82;100.00;147905.59;5025707;28;20048;-70
2023/01/18 08:59:22;;;;;;;92.50;35.57;;;;;;;1.82;100.00;147905.59;5031495;28;20108;-70
2023/01/18 09:01:48;;;;;;;83.93;34.97;;;;;;;1.82;100.00;147905.59;5030992;28;20049;-70
2023/01/18 09:04:13;;;;;;;69.07;31.77;;;;;;;1.82;100.00;147905.59;5029036;28;20033;-71
2023/01/18 09:06:39;;;;;;;62.47;27.87;;;;;;;1.82;100.00;147905.59;5028639;28;20111;-70
2023/01/18 09:09:04;;;;;;;59.70;27.87;;;;;;;1.82;100.00;147905.59;5014558;28;20466;-70
2023/01/18 09:11:30;;;;;;;61.50;27.77;;;;;;;1.82;100.00;147905.59;5012825;28;20100;-71
2023/01/18 09:13:55;;;;;;;58.73;26.67;;;;;;;1.82;100.00;147905.59;5012625;28;20034;-71
2023/01/18 09:16:21;;;;;;;50.93;25.77;;;;;;;1.82;100.00;147905.59;5015165;28;20550;-70
2023/01/18 09:18:48;;;;;;;55.53;25.77;;;;;;;1.82;100.00;147905.59;5017715;28;20029;-70
2023/01/18 09:21:16;;;;;;;50.40;24.33;;;;;;;1.82;100.00;147905.59;5014680;28;20745;-70
2023/01/18 09:23:42;;;;;;;53.03;25.37;;;;;;;1.82;100.00;147905.59;5027453;28;20264;-70
2023/01/18 09:26:15;;;;;;;54.87;25.33;;;;;;;1.82;100.00;147905.59;5016396;28;20285;-70
2023/01/18 09:28:42;;;;;;;47.03;24.50;;;;;;;1.82;100.00;147905.59;5018559;28;20101;-71
2023/01/18 09:31:08;;;;;;;53.53;23.20;;;;;;;1.82;100.00;147905.59;5012339;28;20792;-69
2023/01/18 09:33:34;;;;;;;51.43;25.50;;;;;;;1.82;100.00;147905.59;5013286;28;20653;-70
2023/01/18 09:36:02;;;;;;;49.10;23.47;;;;;;;1.82;100.00;147905.59;5015894;28;20549;-69
2023/01/18 09:38:29;;;;;;;42.67;21.53;;;;;;;1.82;100.00;147905.59;5014450;28;20351;-70
2023/01/18 09:40:55;;;;;;;43.60;21.40;;;;;;;1.82;100.00;147905.59;5011992;28;20621;-70
2023/01/18 09:43:30;;;;;;;43.33;20.90;;;;;;;1.82;100.00;147905.59;5018315;28;20377;-70
2023/01/18 09:45:55;;;;;;;39.77;20.73;;;;;;;1.82;100.00;147905.59;5011591;28;20131;-71
2023/01/18 09:48:29;;;;;;;38.13;19.70;;;;;;;1.82;100.00;147905.59;5019421;28;20064;-70
2023/01/18 09:50:59;;;;;;;40.57;20.00;;;;;;;1.82;100.00;147905.59;5016751;28;20084;-70
2023/01/18 09:54:02;;;;;;;40.33;20.00;;;;;;;1.82;100.00;147905.59;5015429;28;20030;-70
2023/01/18 09:56:35;;;;;;;38.00;19.27;;;;;;;1.82;100.00;147905.59;5015749;28;20432;-70
2023/01/18 09:59:14;;;;;;;37.60;19.20;;;;;;;1.82;100.00;147905.59;5013476;28;20032;-70
2023/01/18 10:01:40;;;;;;;44.83;19.77;;;;;;;1.82;100.00;147905.59;5011923;28;20029;-70
2023/01/18 10:04:15;;;;;;;42.03;18.83;;;;;;;1.82;100.00;147905.59;5019819;28;20071;-69
2023/01/18 10:06:53;;;;;;;48.63;18.33;;;;;;;1.82;100.00;147905.59;5011592;28;20041;-70
2023/01/18 10:09:24;;;;;;;44.23;18.43;;;;;;;1.82;100.00;147905.59;5011826;28;20452;-70
2023/01/18 10:12:01;;;;;;;;;;;;;;;1.82;100.00;147905.59;5019633;28;20531;-70
2023/01/18 10:14:37;;;;;;;46.83;19.53;;;;;;;1.82;100.00;147905.59;5011838;28;19917;-69
2023/01/18 10:17:10;;;;;;;45.33;18.40;;;;;;;1.82;100.00;147905.59;5019502;28;20026;-70
2023/01/18 10:19:37;;;;;;;47.70;18.60;;;;;;;1.82;100.00;147905.59;5029435;28;20436;-70
2023/01/18 10:22:16;;;;;;;44.10;17.23;;;;;;;1.82;100.00;147905.59;5014750;28;20120;-70
2023/01/18 10:24:50;;;;;;;45.73;18.30;;;;;;;1.82;100.00;147905.59;5017192;28;20071;-71
2023/01/18 10:27:44;;;;;;;39.03;16.83;;;;;;;1.82;100.00;147905.59;5025074;28;20129;-70
2023/01/18 10:30:28;;;;;;;36.23;15.73;;;;;;;1.82;100.00;147905.59;5016663;28;20059;-70
2023/01/18 10:33:00;;;;;;;34.07;15.30;;;;;;;1.82;100.00;147905.59;5011175;28;20022;-70
2023/01/18 10:35:42;;;;;;;27.83;13.53;;;;;;;1.82;100.00;147905.59;5010984;28;20076;-70
2023/01/18 10:38:11;;;;;;;;;;;;;;;1.82;100.00;147905.59;5010161;28;20025;-70
2023/01/18 10:40:38;;;;;;;30.90;14.70;;;;;;;1.82;100.00;147905.59;5014542;28;19913;-71
2023/01/18 10:43:09;;;;;;;30.37;15.30;;;;;;;1.82;100.00;147905.59;5011074;28;20029;-70
2023/01/18 10:45:34;;;;;;;30.25;15.55;;;;;;;1.82;100.00;147905.59;5012105;28;20025;-70
2023/01/18 10:48:23;;;;;;;30.57;15.43;;;;;;;1.82;100.00;147905.59;5015520;28;20030;-70
2023/01/18 10:51:12;;;;;;;26.70;14.17;;;;;;;1.82;100.00;147905.59;5025192;28;20483;-71
2023/01/18 10:53:38;;;;;;;28.37;15.23;;;;;;;1.82;100.00;147905.59;5027508;28;20029;-70
2023/01/18 10:56:04;;;;;;;27.27;14.17;;;;;;;1.82;100.00;147905.59;5029711;28;20017;-70
2023/01/18 10:58:39;;;;;;;27.43;14.87;;;;;;;1.82;100.00;147905.59;5027620;28;20515;-70
2023/01/18 11:01:05;;;;;;;29.53;14.67;;;;;;;1.82;100.00;147905.59;5028786;28;20021;-69
2023/01/18 11:03:44;;;;;;;27.50;14.93;;;;;;;1.82;100.00;147905.59;5015014;28;20018;-69
2023/01/18 11:06:09;;;;;;;29.47;14.43;;;;;;;1.82;100.00;147905.59;5014948;28;20033;-69
2023/01/18 11:08:35;;;;;;;32.27;15.93;;;;;;;1.82;100.00;147905.59;5028424;28;20119;-70
2023/01/18 11:11:04;;;;;;;28.83;15.80;;;;;;;1.82;100.00;147905.59;5031645;28;20100;-69
2023/01/18 11:14:00;;;;;;;27.97;15.33;;;;;;;1.82;100.00;147905.59;5031491;28;20025;-69
2023/01/18 11:16:27;;;;;;;28.77;15.63;;;;;;;1.82;100.00;147905.59;5010386;28;20371;-69
2023/01/18 11:19:00;;;;;;;26.03;15.10;;;;;;;1.82;100.00;147905.59;5014553;28;20100;-69
2023/01/18 11:21:39;;;;;;;33.93;15.53;;;;;;;1.82;100.00;147905.59;5018317;28;20021;-70
2023/01/18 11:24:08;;;;;;;28.63;15.10;;;;;;;1.82;100.00;147905.59;5019083;28;20022;-69
2023/01/18 11:26:33;;;;;;;30.10;15.70;;;;;;;;;;5019647;28;20416;-69
2023/01/18 11:29:05;;;;;;;32.10;16.53;;;;;;;-145.18;100.00;114074.00;5030787;28;20033;-69
2023/01/18 11:31:45;;;;;;;29.10;14.60;;;;;;;-145.18;100.00;114074.00;5016316;28;20441;-69
2023/01/18 11:34:32;;;;;;;28.73;15.00;;;;;;;-145.18;100.00;114074.00;5014348;28;20034;-69
2023/01/18 11:36:59;;;;;;;30.80;17.47;;;;;;;1.82;100.00;147905.59;5015539;28;20021;-69
2023/01/18 11:39:34;;;;;;;33.77;17.33;;;;;;;1.82;100.00;147905.59;5014360;28;20112;-69
2023/01/18 11:42:10;;;;;;;37.20;17.37;;;;;;;1.82;100.00;147905.59;5014888;28;20493;-70
2023/01/18 11:44:42;;;;;;;31.17;17.27;;;;;;;1.82;100.00;147905.59;5014571;28;20107;-69
2023/01/18 11:47:12;;;;;;;;;;;;;;;1.82;100.00;147905.59;5018412;28;20052;-70
2023/01/18 11:49:48;;;;;;;29.23;16.03;;;;;;;1.82;100.00;147905.59;5019114;28;19975;-70